Time;durP1;ratioP1;P1;durP2;ratioP2;P2;SDS_P1;SDS_P2;PMS_P1;PMS_P2;Temp;Humidity;BMP_temperature;BMP_pressure;BME280_temperature;BME280_humidity;BME280_pressure;Samples;Min_cycle;Max_cycle;Signal;HPM_P1;HPM_P2
2022/06/20 00:00:26;;;;;;;;;;;;;;;20.28;56.14;99684.34;84785;1328;22530;-70
2022/06/20 00:02:42;;;;;;;;;;;;;;;20.23;56.12;99684.95;84778;1328;24194;-70
2022/06/20 00:04:45;;;;;;;;;;;;;;;20.18;56.36;99687.55;84757;1327;25445;-70
2022/06/20 00:06:48;;;;;;;;;;;;;;;20.13;56.30;99685.35;84781;1327;22595;-70
2022/06/20 00:08:52;;;;;;;;;;;;;;;20.07;56.70;99689.89;84771;1326;22849;-70
2022/06/20 00:10:55;;;;;;;;;;;;;;;20.01;57.02;99692.05;84788;1326;24103;-70
2022/06/20 00:12:58;;;;;;;;;;;;;;;19.95;57.34;99693.80;84777;1326;22577;-70
2022/06/20 00:15:02;;;;;;;;;;;;;;;19.90;57.80;99672.91;84775;1330;22876;-70
2022/06/20 00:17:08;;;;;;;;;;;;;;;19.83;58.20;99664.04;84760;1324;22806;-71
2022/06/20 00:19:12;;;;;;;;;;;;;;;19.76;58.66;99652.45;84780;1326;22604;-71
2022/06/20 00:21:21;;;;;;;;;;;;;;;19.70;58.97;99648.98;84824;1326;22616;-70
2022/06/20 00:23:25;;;;;;;;;;;;;;;19.63;59.36;99646.23;84771;1326;22587;-70
2022/06/20 00:25:30;;;;;;;;;;;;;;;19.56;59.69;99640.73;84781;1328;24516;-70
2022/06/20 00:27:33;;;;;;;;;;;;;;;19.50;59.98;99635.61;84782;1326;24913;-70
2022/06/20 00:29:36;;;;;;;;;;;;;;;19.45;60.45;99623.52;84777;1326;22583;-70
2022/06/20 00:31:40;;;;;;;;;;;;;;;19.39;60.94;99610.78;84775;1326;23917;-70
2022/06/20 00:33:43;;;;;;;;;;;;;;;19.35;61.20;99602.41;84795;1326;22642;-70
2022/06/20 00:35:46;;;;;;;;;;;;;;;19.33;60.88;99602.36;84790;1328;22592;-70
2022/06/20 00:37:50;;;;;;;;;;;;;;;19.34;60.53;99603.76;84755;1329;22707;-70
2022/06/20 00:39:53;;;;;;;;;;;;;;;19.35;60.13;99612.69;84754;1326;22723;-70
2022/06/20 00:41:56;;;;;;;;;;;;;;;19.37;59.92;99624.58;84689;1327;23931;-70
2022/06/20 00:44:01;;;;;;;;;;;;;;;19.38;59.70;99623.23;84690;1330;25934;-70
2022/06/20 00:46:06;;;;;;;;;;;;;;;19.37;59.84;99611.33;84667;1329;22609;-70
2022/06/20 00:48:12;;;;;;;;;;;;;;;19.35;59.90;99607.03;84755;1328;25423;-71
2022/06/20 00:50:18;;;;;;;;;;;;;;;19.32;59.97;99601.09;84746;1327;22734;-70
2022/06/20 00:52:26;;;;;;;;;;;;;;;19.30;60.00;99601.11;84827;1323;22606;-71
2022/06/20 00:54:32;;;;;;;;;;;;;;;19.27;60.10;99611.27;84748;1326;25294;-70
2022/06/20 00:56:39;;;;;;;;;;;;;;;19.25;60.00;99642.55;84750;1330;22572;-70
2022/06/20 00:58:44;;;;;;;;;;;;;;;19.23;59.92;99669.38;84767;1330;22627;-71
2022/06/20 01:00:47;;;;;;;;;;;;;;;19.21;59.93;99669.97;84732;1322;22600;-70
2022/06/20 01:02:51;;;;;;;;;;;;;;;19.19;60.11;99671.02;84736;1330;22583;-70
2022/06/20 01:04:57;;;;;;;;;;;;;;;19.16;60.23;99682.42;84768;1330;22769;-70
2022/06/20 01:07:01;;;;;;;;;;;;;;;19.12;60.36;99694.55;84771;1330;22572;-71
2022/06/20 01:09:06;;;;;;;;;;;;;;;19.09;60.62;99702.25;84742;1329;22591;-71
2022/06/20 01:11:16;;;;;;;;;;;;;;;19.04;60.83;99699.48;84744;1327;22890;-71
2022/06/20 01:13:21;;;;;;;;;;;;;;;18.98;61.14;99704.58;84710;1326;24187;-70
2022/06/20 01:15:26;;;;;;;;;;;;;;;18.91;61.52;99706.59;84718;1324;25329;-70
2022/06/20 01:17:31;;;;;;;;;;;;;;;18.83;62.13;99708.64;84742;1330;22671;-70
2022/06/20 01:19:43;;;;;;;;;;;;;;;18.76;62.49;99712.44;84746;1326;22663;-69
2022/06/20 01:21:46;;;;;;;;;;;;;;;18.70;62.84;99705.90;84734;1326;23945;-70
2022/06/20 01:23:53;;;;;;;;;;;;;;;18.63;63.00;99707.80;84743;1328;25425;-70
2022/06/20 01:26:06;;;;;;;;;;;;;;;18.59;63.07;99710.25;84750;1326;25281;-70
2022/06/20 01:28:11;;;;;;;;;;;;;;;18.56;63.04;99706.65;84740;1327;22576;-71
2022/06/20 01:30:14;;;;;;;;;;;;;;;18.52;62.95;99704.99;84742;1330;22567;-69
2022/06/20 01:32:17;;;;;;;;;;;;;;;18.48;62.95;99698.07;84695;1330;22615;-69
2022/06/20 01:34:20;;;;;;;;;;;;;;;18.44;63.08;99695.05;84739;1330;24901;-70
2022/06/20 01:38:45;;;;;;;;;;;;;;;18.38;63.08;99697.52;84733;1330;22970;-70
2022/06/20 01:43:09;;;;;;;;;;;;;;;18.30;63.17;99697.77;84611;1330;22628;-71
2022/06/20 01:47:32;;;;;;;;;;;;;;;18.24;63.37;99700.73;84731;1326;22988;-70
2022/06/20 01:49:36;;;;;;;;;;;;;;;18.23;63.36;99706.30;84735;1325;22663;-71
2022/06/20 01:51:41;;;;;;;;;;;;;;;18.21;63.44;99699.02;84744;1328;22606;-70
2022/06/20 01:53:45;;;;;;;;;;;;;;;18.19;63.63;99699.38;84754;1330;22577;-70
2022/06/20 01:55:50;;;;;;;;;;;;;;;18.16;63.65;99701.41;84724;1329;22688;-70
2022/06/20 01:58:06;;;;;;;;;;;;;;;18.15;63.64;99709.63;84764;1330;22621;-70
2022/06/20 02:00:11;;;;;;;;;;;;;;;18.14;63.68;99709.52;84749;1326;23807;-71
2022/06/20 02:02:15;;;;;;;;;;;;;;;18.13;63.62;99707.64;84767;1326;22613;-70
2022/06/20 02:04:20;;;;;;;;;;;;;;;18.11;63.65;99709.36;84729;1327;22625;-70
2022/06/20 02:06:23;;;;;;;;;;;;;;;18.09;63.86;99712.20;84683;1331;22609;-70
2022/06/20 02:08:26;;;;;;;;;;;;;;;18.07;63.94;99715.94;84741;1326;24726;-70
2022/06/20 02:10:31;;;;;;;;;;;;;;;18.04;63.99;99716.27;84811;1326;22606;-70
2022/06/20 02:12:36;;;;;;;;;;;;;;;18.02;63.92;99731.11;84838;1330;22611;-70
2022/06/20 02:14:41;;;;;;;;;;;;;;;18.00;63.99;99737.97;84823;1328;22667;-71
2022/06/20 02:16:46;;;;;;;;;;;;;;;17.98;64.09;99742.02;84788;1328;25313;-69
2022/06/20 02:18:51;;;;;;;;;;;;;;;17.95;64.20;99743.67;84828;1328;22586;-70
2022/06/20 02:20:55;;;;;;;;;;;;;;;17.92;64.36;99741.58;84832;1326;22570;-70
2022/06/20 02:22:59;;;;;;;;;;;;;;;17.88;64.42;99736.25;84826;1330;22645;-70
2022/06/20 02:25:05;;;;;;;;;;;;;;;17.85;64.64;99732.24;84793;1326;22608;-70
2022/06/20 02:27:11;;;;;;;;;;;;;;;17.81;64.89;99723.61;84829;1328;22805;-70
2022/06/20 02:29:22;;;;;;;;;;;;;;;17.76;65.02;99718.64;84817;1329;22665;-70
2022/06/20 02:31:26;;;;;;;;;;;;;;;17.72;65.18;99718.58;84809;1326;22577;-70
2022/06/20 02:33:29;;;;;;;;;;;;;;;17.71;65.35;99724.15;84828;1329;24107;-70
2022/06/20 02:35:33;;;;;;;;;;;;;;;17.70;65.46;99727.95;84802;1328;24259;-70
2022/06/20 02:37:36;;;;;;;;;;;;;;;17.68;65.61;99732.67;84824;1327;24359;-70
2022/06/20 02:39:41;;;;;;;;;;;;;;;17.68;65.64;99747.83;84825;1326;22600;-70
2022/06/20 02:41:44;;;;;;;;;;;;;;;17.70;65.79;99752.13;84824;1326;22617;-70
2022/06/20 02:43:49;;;;;;;;;;;;;;;17.70;66.09;99756.14;84808;1330;22620;-71
2022/06/20 02:45:54;;;;;;;;;;;;;;;17.73;66.22;99748.02;84839;1329;22579;-70
2022/06/20 02:47:59;;;;;;;;;;;;;;;17.77;66.25;99760.41;84823;1330;23932;-70
2022/06/20 02:50:03;;;;;;;;;;;;;;;17.81;66.45;99759.95;84822;1326;24804;-71
2022/06/20 02:52:07;;;;;;;;;;;;;;;17.84;66.39;99757.73;84834;1327;23844;-70
2022/06/20 02:54:11;;;;;;;;;;;;;;;17.87;66.56;99760.68;84798;1329;25262;-70
2022/06/20 02:56:16;;;;;;;;;;;;;;;17.91;66.67;99772.23;84824;1330;22619;-70
2022/06/20 02:58:21;;;;;;;;;;;;;;;17.94;66.91;99775.46;84849;1330;24357;-71
2022/06/20 03:00:27;;;;;;;;;;;;;;;18.01;67.02;99777.44;84816;1330;22589;-71
2022/06/20 03:02:31;;;;;;;;;;;;;;;18.03;67.17;99781.80;84823;1328;22601;-71
2022/06/20 03:04:36;;;;;;;;;;;;;;;18.05;67.33;99784.32;84798;1327;22616;-70
2022/06/20 03:06:41;;;;;;;;;;;;;;;18.10;67.67;99777.94;84823;1330;23141;-71
2022/06/20 03:08:45;;;;;;;;;;;;;;;18.17;67.80;99773.33;84816;1329;22642;-70
2022/06/20 03:10:49;;;;;;;;;;;;;;;18.22;68.08;99775.75;84834;1330;23938;-70
2022/06/20 03:12:53;;;;;;;;;;;;;;;18.28;68.22;99783.92;84817;1328;22670;-71
2022/06/20 03:14:59;;;;;;;;;;;;;;;18.35;68.38;99784.29;84806;1329;22567;-71
2022/06/20 03:17:03;;;;;;;;;;;;;;;18.42;68.29;99784.92;84822;1326;22746;-70
2022/06/20 03:19:06;;;;;;;;;;;;;;;18.49;68.43;99796.23;84810;1326;22586;-71
2022/06/20 03:21:09;;;;;;;;;;;;;;;18.54;68.68;99787.48;84807;1330;25456;-70
2022/06/20 03:23:16;;;;;;;;;;;;;;;18.60;68.45;99793.56;84798;1327;23963;-70
2022/06/20 03:25:20;;;;;;;;;;;;;;;18.69;68.61;99786.35;84820;1330;23865;-70
2022/06/20 03:27:25;;;;;;;;;;;;;;;18.76;68.65;99788.02;84798;1328;24375;-71
2022/06/20 03:29:28;;;;;;;;;;;;;;;18.91;68.50;99787.16;84827;1330;23104;-71
2022/06/20 03:31:32;;;;;;;;;;;;;;;19.11;68.37;99791.91;84797;1324;24276;-71
2022/06/20 03:33:35;;;;;;;;;;;;;;;19.33;68.19;99786.00;84826;1326;22576;-70
2022/06/20 03:35:43;;;;;;;;;;;;;;;19.64;67.91;99783.37;84855;1324;24282;-71
2022/06/20 03:37:46;;;;;;;;;;;;;;;19.97;67.49;99787.10;84811;1327;22560;-70
2022/06/20 03:39:51;;;;;;;;;;;;;;;20.32;66.79;99787.98;84791;1330;22600;-70
2022/06/20 03:41:54;;;;;;;;;;;;;;;20.71;66.33;99798.16;84815;1329;25519;-70
2022/06/20 03:44:06;;;;;;;;;;;;;;;21.07;65.28;99802.55;84782;1329;22587;-70
2022/06/20 03:46:18;;;;;;;;;;;;;;;21.40;64.32;99802.40;84774;1330;22539;-70
2022/06/20 03:48:23;;;;;;;;;;;;;;;21.76;63.59;99796.02;84770;1325;22574;-70
2022/06/20 03:50:28;;;;;;;;;;;;;;;22.12;62.95;99796.37;84808;1326;24345;-72
2022/06/20 03:52:33;;;;;;;;;;;;;;;22.50;61.81;99792.56;84793;1330;23937;-69
2022/06/20 03:54:45;;;;;;;;;;;;;;;22.77;60.75;99797.42;84782;1329;25276;-70
2022/06/20 03:56:53;;;;;;;;;;;;;;;23.06;59.84;99798.30;84634;1330;240537;-70
2022/06/20 03:58:59;;;;;;;;;;;;;;;23.39;59.18;99813.10;84794;1326;22560;-70
2022/06/20 04:01:04;;;;;;;;;;;;;;;23.71;58.21;99824.80;84815;1326;22788;-70
2022/06/20 04:03:11;;;;;;;;;;;;;;;23.93;57.06;99824.71;84812;1326;25386;-70
2022/06/20 04:05:18;;;;;;;;;;;;;;;24.13;56.52;99825.47;84798;1327;23057;-70
2022/06/20 04:07:23;;;;;;;;;;;;;;;24.29;55.71;99826.38;84806;1323;22572;-71
2022/06/20 04:11:58;;;;;;;;;;;;;;;24.70;54.50;99827.45;84790;1330;22810;-70
2022/06/20 04:14:03;;;;;;;;;;;;;;;24.97;54.17;99823.45;84800;1329;24058;-70
2022/06/20 04:16:09;;;;;;;;;;;;;;;25.27;53.06;99824.86;84777;1330;22577;-70
2022/06/20 04:18:29;;;;;;;;;;;;;;;25.48;52.44;99822.09;84779;1324;22704;-70
2022/06/20 04:20:38;;;;;;;;;;;;;;;25.72;51.96;99819.94;84776;1326;22638;-71
2022/06/20 04:22:41;;;;;;;;;;;;;;;26.02;51.20;99818.27;84778;1328;22601;-70
2022/06/20 04:24:50;;;;;;;;;;;;;;;26.33;50.34;99822.80;84780;1326;22536;-70
2022/06/20 04:26:57;;;;;;;;;;;;;;;26.61;49.65;99821.10;84793;1327;25489;-70
2022/06/20 04:29:02;;;;;;;;;;;;;;;26.87;48.52;99825.86;84811;1329;22871;-70
2022/06/20 04:31:08;;;;;;;;;;;;;;;27.01;48.32;99851.02;84784;1330;24391;-70
2022/06/20 04:33:13;;;;;;;;;;;;;;;27.15;47.55;99868.38;84790;1330;22650;-70
2022/06/20 04:35:19;;;;;;;;;;;;;;;27.18;47.21;99870.17;84757;1330;25412;-70
2022/06/20 04:37:23;;;;;;;;;;;;;;;27.24;46.83;99874.58;84753;1326;24385;-70
2022/06/20 04:39:28;;;;;;;;;;;;;;;27.36;46.70;99883.89;84770;1326;22574;-71
2022/06/20 04:41:37;;;;;;;;;;;;;;;27.49;46.51;99887.85;84760;1326;22849;-70
2022/06/20 04:43:43;;;;;;;;;;;;;;;27.54;45.91;99895.19;84750;1330;23959;-71
2022/06/20 04:45:48;;;;;;;;;;;;;;;27.42;45.51;99901.98;84760;1326;22593;-71
2022/06/20 04:47:52;;;;;;;;;;;;;;;27.48;46.11;99905.37;84778;1327;22631;-71
2022/06/20 04:49:56;;;;;;;;;;;;;;;27.77;45.89;99899.31;84778;1330;24000;-70
2022/06/20 04:51:59;;;;;;;;;;;;;;;28.09;45.12;99897.36;84753;1326;23934;-71
2022/06/20 04:54:03;;;;;;;;;;;;;;;28.34;44.89;99895.73;84742;1330;23923;-71
2022/06/20 04:56:08;;;;;;;;;;;;;;;28.68;44.45;99898.29;84727;1328;22780;-71
2022/06/20 04:58:21;;;;;;;;;;;;;;;28.68;43.24;99900.11;84776;1326;22607;-71
2022/06/20 05:00:27;;;;;;;;;;;;;;;28.09;43.39;99894.02;84731;1326;23833;-71
2022/06/20 05:02:31;;;;;;;;;;;;;;;27.39;43.83;99891.76;84722;1326;22592;-71
2022/06/20 05:04:37;;;;;;;;;;;;;;;26.74;44.59;99896.79;84727;1326;22591;-70
2022/06/20 05:06:40;;;;;;;;;;;;;;;26.15;45.86;99893.72;84725;1327;22618;-70
2022/06/20 05:08:48;;;;;;;;;;;;;;;25.68;46.72;99896.67;84723;1330;22611;-71
2022/06/20 05:10:53;;;;;;;;;;;;;;;25.24;47.78;99897.19;84734;1327;24283;-71
2022/06/20 05:12:59;;;;;;;;;;;;;;;24.85;48.45;99905.91;84729;1326;22600;-71
2022/06/20 05:15:05;;;;;;;;;;;;;;;24.48;49.13;99907.34;84740;1326;24279;-71
2022/06/20 05:17:13;;;;;;;;;;;;;;;24.16;50.12;99910.23;84744;1327;23836;-70
2022/06/20 05:19:19;;;;;;;;;;;;;;;23.88;50.71;99911.11;84707;1328;23037;-70
2022/06/20 05:21:25;;;;;;;;;;;;;;;23.58;51.36;99919.83;84717;1326;22908;-71
2022/06/20 05:23:31;;;;;;;;;;;;;;;23.36;52.20;99919.30;84711;1330;22547;-70
2022/06/20 05:25:35;;;;;;;;;;;;;;;23.12;52.52;99919.35;84713;1330;22665;-70
2022/06/20 05:27:43;;;;;;;;;;;;;;;22.88;53.22;99930.23;84693;1330;22612;-70
2022/06/20 05:29:46;;;;;;;;;;;;;;;22.63;53.86;99933.16;84724;1328;22689;-70
2022/06/20 05:31:52;;;;;;;;;;;;;;;22.41;54.43;99924.89;84707;1328;22561;-70
2022/06/20 05:33:57;;;;;;;;;;;;;;;22.22;55.06;99923.20;84727;1330;22693;-70
2022/06/20 05:36:02;;;;;;;;;;;;;;;22.03;55.57;99922.48;84736;1326;24382;-70
2022/06/20 05:38:11;;;;;;;;;;;;;;;21.88;56.66;99926.08;84694;1327;22805;-70
2022/06/20 05:40:16;;;;;;;;;;;;;;;21.77;56.95;99927.55;84707;1326;22612;-70
2022/06/20 05:42:20;;;;;;;;;;;;;;;21.72;57.22;99934.55;84690;1329;24575;-70
2022/06/20 05:44:23;;;;;;;;;;;;;;;21.71;57.61;99952.95;84807;1330;24236;-71
2022/06/20 05:46:30;;;;;;;;;;;;;;;21.75;57.97;99956.79;84812;1326;22728;-70
2022/06/20 05:48:35;;;;;;;;;;;;;;;21.74;57.95;99947.99;84798;1326;22865;-70
2022/06/20 05:50:43;;;;;;;;;;;;;;;21.73;58.35;99937.48;84814;1330;22591;-71
2022/06/20 05:52:46;;;;;;;;;;;;;;;21.65;58.94;99925.07;84787;1329;23024;-70
2022/06/20 05:54:53;;;;;;;;;;;;;;;21.65;59.96;99921.70;84660;1331;22772;-70
2022/06/20 05:56:57;;;;;;;;;;;;;;;21.64;60.12;99925.11;84693;1329;22601;-70
2022/06/20 05:59:00;;;;;;;;;;;;;;;21.61;60.04;99904.86;84666;1331;22609;-70
2022/06/20 06:01:07;;;;;;;;;;;;;;;21.57;60.39;99901.43;84675;1327;22607;-70
2022/06/20 06:03:13;;;;;;;;;;;;;;;21.59;60.68;99898.41;84675;1331;22886;-69
2022/06/20 06:05:18;;;;;;;;;;;;;;;21.55;60.69;99892.97;84738;1329;23691;-70
2022/06/20 06:07:25;;;;;;;;;;;;;;;21.52;60.89;99884.16;84840;1326;22604;-70
2022/06/20 06:09:42;;;;;;;;;;;;;;;21.49;60.91;99867.41;84809;1324;22573;-70
2022/06/20 06:11:47;;;;;;;;;;;;;;;21.43;60.60;99865.70;84804;1327;25312;-70
2022/06/20 06:13:54;;;;;;;;;;;;;;;21.31;60.90;99866.73;84666;1331;22822;-70
2022/06/20 06:18:24;;;;;;;;;;;;;;;20.97;61.41;99860.41;84677;1329;23969;-70
2022/06/20 06:20:28;;;;;;;;;;;;;;;20.86;61.83;99845.27;84650;1331;23966;-70
2022/06/20 06:22:34;;;;;;;;;;;;;;;20.80;62.00;99823.29;84670;1331;23841;-70
2022/06/20 06:24:39;;;;;;;;;;;;;;;20.79;62.50;99812.33;84679;1329;22571;-70
2022/06/20 06:26:43;;;;;;;;;;;;;;;20.77;62.53;99814.83;84635;1329;22659;-70
2022/06/20 06:28:47;;;;;;;;;;;;;;;20.75;62.54;99796.44;84810;1325;22873;-70
2022/06/20 06:30:52;;;;;;;;;;;;;;;20.75;62.78;99787.35;84795;1329;25367;-70
2022/06/20 06:32:58;;;;;;;;;;;;;;;20.71;62.58;99785.94;84830;1326;22587;-70
2022/06/20 06:35:04;;;;;;;;;;;;;;;20.66;62.70;99813.33;84826;1326;22571;-70
2022/06/20 06:37:12;;;;;;;;;;;;;;;20.56;63.04;99853.88;84812;1326;22845;-70
2022/06/20 06:39:17;;;;;;;;;;;;;;;20.44;63.54;99895.33;84818;1326;22603;-71
2022/06/20 06:41:23;;;;;;;;;;;;;;;20.35;64.35;99886.56;84821;1327;22596;-70
2022/06/20 06:43:28;;;;;;;;;;;;;;;20.24;64.73;99847.80;84812;1326;22662;-69
2022/06/20 06:45:33;;;;;;;;;;;;;;;20.17;65.11;99857.77;84831;1328;23829;-70
2022/06/20 06:47:39;;;;;;;;;;;;;;;20.11;65.33;99873.19;84803;1326;25446;-70
2022/06/20 06:49:44;;;;;;;;;;;;;;;20.08;65.68;99846.21;84790;1329;22610;-70
2022/06/20 06:51:52;;;;;;;;;;;;;;;20.07;65.89;99812.66;84833;1326;22602;-70
2022/06/20 06:53:57;;;;;;;;;;;;;;;20.06;66.81;99790.58;84827;1326;22652;-71
2022/06/20 06:56:04;;;;;;;;;;;;;;;20.02;67.16;99785.58;84823;1327;22714;-71
2022/06/20 06:58:13;;;;;;;;;;;;;;;20.00;67.95;99772.55;84794;1327;24430;-70
2022/06/20 07:00:21;;;;;;;;;;;;;;;19.94;67.81;99798.02;84812;1326;22577;-70
2022/06/20 07:02:26;;;;;;;;;;;;;;;19.89;67.80;99834.75;84816;1326;22569;-71
2022/06/20 07:04:32;;;;;;;;;;;;;;;19.85;68.60;99866.03;84807;1327;24287;-70
2022/06/20 07:06:37;;;;;;;;;;;;;;;19.86;69.89;99923.87;84797;1324;22571;-70
2022/06/20 07:08:44;;;;;;;;;;;;;;;19.93;70.12;99884.84;84803;1326;22515;-70
2022/06/20 07:10:49;;;;;;;;;;;;;;;20.02;70.43;99916.13;84793;1326;22527;-70
2022/06/20 07:12:54;;;;;;;;;;;;;;;20.13;70.83;99935.42;84799;1327;25445;-71
2022/06/20 07:15:00;;;;;;;;;;;;;;;20.21;70.76;99909.34;84817;1326;22570;-71
2022/06/20 07:17:07;;;;;;;;;;;;;;;20.24;70.23;99897.27;84812;1326;22604;-70
2022/06/20 07:19:11;;;;;;;;;;;;;;;20.22;70.41;99892.63;84837;1326;24263;-71
2022/06/20 07:21:17;;;;;;;;;;;;;;;20.30;70.63;99888.24;84804;1329;22575;-70
2022/06/20 07:23:21;;;;;;;;;;;;;;;20.41;70.79;99881.96;84829;1324;22595;-70
2022/06/20 07:25:27;;;;;;;;;;;;;;;20.71;71.38;99894.92;84805;1326;24375;-71
2022/06/20 07:27:33;;;;;;;;;;;;;;;21.01;70.18;99910.88;84822;1324;24427;-69
2022/06/20 07:29:40;;;;;;;;;;;;;;;21.12;69.48;99897.32;84811;1326;22580;-70
2022/06/20 07:31:43;;;;;;;;;;;;;;;21.16;68.67;99891.30;84818;1330;25272;-70
2022/06/20 07:33:48;;;;;;;;;;;;;;;21.17;68.70;99882.71;84817;1330;22729;-70
2022/06/20 07:35:53;;;;;;;;;;;;;;;21.29;68.53;99885.86;84782;1324;22658;-70
2022/06/20 07:37:57;;;;;;;;;;;;;;;21.52;68.18;99887.92;84816;1330;23909;-70
2022/06/20 07:40:02;;;;;;;;;;;;;;;21.67;67.92;99894.33;84816;1330;22619;-70
2022/06/20 07:42:09;;;;;;;;;;;;;;;21.81;67.85;99896.20;84801;1325;22561;-70
2022/06/20 07:44:14;;;;;;;;;;;;;;;21.86;66.66;99890.20;84819;1330;22575;-70
2022/06/20 07:46:20;;;;;;;;;;;;;;;21.76;65.82;99883.96;84805;1328;22615;-70
2022/06/20 07:48:26;;;;;;;;;;;;;;;21.71;65.74;99882.80;84803;1330;22761;-70
2022/06/20 07:50:32;;;;;;;;;;;;;;;21.70;65.97;99874.91;84780;1329;22575;-71
2022/06/20 07:52:36;;;;;;;;;;;;;;;21.84;66.74;99861.48;84807;1328;22589;-70
2022/06/20 07:54:43;;;;;;;;;;;;;;;22.58;67.38;99849.38;84816;1326;22571;-71
2022/06/20 07:56:48;;;;;;;;;;;;;;;23.13;64.92;99830.45;84816;1327;22578;-71
2022/06/20 07:58:54;;;;;;;;;;;;;;;23.45;63.13;99816.11;84798;1330;22664;-71
2022/06/20 08:00:57;;;;;;;;;;;;;;;23.44;61.71;99800.13;84815;1326;23864;-71
2022/06/20 08:03:06;;;;;;;;;;;;;;;23.39;61.45;99785.56;84813;1326;22593;-70
2022/06/20 08:05:12;;;;;;;;;;;;;;;23.29;61.18;99773.91;84810;1328;23986;-70
2022/06/20 08:07:20;;;;;;;;;;;;;;;23.28;61.32;99764.22;84766;1330;23951;-69
2022/06/20 08:09:24;;;;;;;;;;;;;;;23.99;62.36;99754.59;84799;1326;22707;-70
2022/06/20 08:11:42;;;;;;;;;;;;;;;25.09;60.93;99739.16;84803;1328;22593;-70
2022/06/20 08:13:48;;;;;;;;;;;;;;;26.20;59.36;99731.29;84812;1326;22576;-70
2022/06/20 08:15:54;;;;;;;;;;;;;;;27.25;56.35;99727.36;84795;1330;22725;-70
2022/06/20 08:17:58;;;;;;;;;;;;;;;28.24;52.91;99712.82;84823;1326;22546;-70
2022/06/20 08:20:02;;;;;;;;;;;;;;;28.94;50.45;99701.39;84789;1330;22620;-70
2022/06/20 08:22:09;;;;;;;;;;;;;;;29.55;48.72;99690.40;84769;1326;24340;-71
2022/06/20 08:24:16;;;;;;;;;;;;;;;29.98;45.93;99678.13;84800;1326;22604;-73
2022/06/20 08:26:23;;;;;;;;;;;;;;;30.22;46.25;99668.23;84789;1326;22663;-73
2022/06/20 08:28:34;;;;;;;;;;;;;;;30.55;44.18;99653.69;84783;1326;24286;-73
2022/06/20 08:30:40;;;;;;;;;;;;;;;30.79;43.95;99652.64;84804;1327;22602;-73
2022/06/20 08:32:50;;;;;;;;;;;;;;;31.19;43.51;99650.39;84753;1326;22607;-74
2022/06/20 08:34:55;;;;;;;;;;;;;;;31.72;43.60;99636.27;84814;1330;22600;-74
2022/06/20 08:37:01;;;;;;;;;;;;;;;32.37;42.40;99625.80;84777;1326;22586;-73
2022/06/20 08:39:07;;;;;;;;;;;;;;;32.84;41.07;99627.45;84766;1327;22574;-74
2022/06/20 08:41:18;;;;;;;;;;;;;;;32.97;39.72;99636.17;84806;1330;22527;-74
2022/06/20 08:43:33;;;;;;;;;;;;;;;33.18;39.52;99635.31;84763;1326;22856;-72
2022/06/20 08:45:42;;;;;;;;;;;;;;;33.46;39.01;99632.67;84780;1326;22580;-73
2022/06/20 08:48:08;;;;;;;;;;;;;;;33.48;37.52;99631.66;84786;1326;22591;-72
2022/06/20 08:50:34;;;;;;;;;;;;;;;33.72;38.44;99646.31;84797;1328;22669;-72
2022/06/20 08:53:00;;;;;;;;;;;;;;;33.96;37.11;99672.02;84752;1326;23921;-72
2022/06/20 08:55:36;;;;;;;;;;;;;;;34.16;36.89;99681.48;84739;1326;22733;-72
2022/06/20 08:57:46;;;;;;;;;;;;;;;34.47;36.96;99684.65;84764;1326;22599;-72
2022/06/20 09:00:00;;;;;;;;;;;;;;;34.58;35.87;99679.66;84754;1324;22668;-72
2022/06/20 09:02:10;;;;;;;;;;;;;;;34.51;35.71;99671.20;84737;1326;25305;-72
2022/06/20 09:04:23;;;;;;;;;;;;;;;34.44;36.00;99661.17;84725;1329;22695;-72
2022/06/20 09:06:44;;;;;;;;;;;;;;;34.47;35.21;99656.90;84739;1326;22591;-72
2022/06/20 09:09:01;;;;;;;;;;;;;;;34.06;35.74;99650.32;84729;1327;22662;-72
2022/06/20 09:11:12;;;;;;;;;;;;;;;33.72;36.01;99647.89;84766;1329;22592;-72
2022/06/20 09:13:24;;;;;;;;;;;;;;;33.20;36.25;99647.80;84751;1330;22833;-72
2022/06/20 09:15:34;;;;;;;;;;;;;;;32.77;37.48;99643.19;84708;1323;22738;-72
2022/06/20 09:17:45;;;;;;;;;;;;;;;32.56;38.08;99639.63;84721;1326;22589;-72
2022/06/20 09:19:56;;;;;;;;;;;;;;;32.53;39.40;99637.02;84722;1327;25249;-71
2022/06/20 09:22:06;;;;;;;;;;;;;;;32.78;40.36;99632.39;84736;1326;22610;-70
2022/06/20 09:24:21;;;;;;;;;;;;;;;33.13;40.00;99624.27;84740;1326;22816;-71
2022/06/20 09:26:28;;;;;;;;;;;;;;;33.37;38.89;99620.30;84711;1326;22719;-72
2022/06/20 09:28:49;;;;;;;;;;;;;;;33.38;37.65;99621.63;84709;1327;22517;-71
